Time;durP1;ratioP1;P1;durP2;ratioP2;P2;SDS_P1;SDS_P2;PMS_P1;PMS_P2;Temp;Humidity;BMP_temperature;BMP_pressure;BME280_temperature;BME280_humidity;BME280_pressure;Samples;Min_cycle;Max_cycle;Signal;HPM_P1;HPM_P2
2021/05/07 00:01:49;;;;;;;10.13;7.72;;;;;;;9.44;53.75;100739.94;4911850;28;124555;-73
2021/05/07 00:04:19;;;;;;;11.35;7.60;;;;;;;9.41;53.87;100742.72;4909325;28;124242;-72
2021/05/07 00:06:47;;;;;;;12.10;7.80;;;;;;;9.39;54.04;100741.91;4910945;28;119414;-73
2021/05/07 00:09:14;;;;;;;13.85;8.52;;;;;;;9.36;54.01;100752.59;4901497;28;119421;-72
2021/05/07 00:11:41;;;;;;;10.38;7.80;;;;;;;9.35;53.81;100750.91;4894376;28;124070;-73
2021/05/07 00:14:08;;;;;;;12.18;8.32;;;;;;;9.34;54.29;100743.88;4909599;28;124665;-73
2021/05/07 00:16:35;;;;;;;13.95;8.98;;;;;;;9.35;54.06;100750.91;4910027;28;120117;-72
2021/05/07 00:19:05;;;;;;;14.85;8.60;;;;;;;9.35;53.94;100750.91;4910968;28;120289;-75
2021/05/07 00:21:39;;;;;;;12.40;8.07;;;;;;;9.34;54.20;100749.16;4908388;28;124394;-73
2021/05/07 00:24:07;;;;;;;12.73;8.50;;;;;;;9.34;54.10;100754.47;4912372;28;123190;-73
2021/05/07 00:26:34;;;;;;;14.60;8.82;;;;;;;9.34;54.13;100738.59;4911104;28;119568;-73
2021/05/07 00:29:01;;;;;;;15.43;8.82;;;;;;;9.34;54.36;100747.41;4908624;28;119086;-74
2021/05/07 00:31:27;;;;;;;13.30;8.73;;;;;;;9.33;53.89;100748.31;4909736;28;123865;-73
2021/05/07 00:33:54;;;;;;;11.77;8.43;;;;;;;9.32;54.02;100751.91;4909563;28;123931;-73
2021/05/07 00:36:21;;;;;;;13.07;8.32;;;;;;;9.31;54.20;100754.59;4885404;28;118341;-73
2021/05/07 00:38:48;;;;;;;13.15;8.70;;;;;;;9.30;54.44;100758.16;4908119;28;119387;-73
2021/05/07 00:41:15;;;;;;;15.02;8.88;;;;;;;9.28;54.24;100760.00;4895840;28;123828;-74
2021/05/07 00:43:42;;;;;;;12.73;8.30;;;;;;;9.27;54.37;100758.31;4890222;28;123008;-75
2021/05/07 00:46:10;;;;;;;12.63;8.02;;;;;;;9.26;54.35;100767.13;4894813;28;118156;-73
2021/05/07 00:48:39;;;;;;;13.57;9.02;;;;;;;9.24;54.49;100763.69;4891263;28;119175;-73
2021/05/07 00:51:05;;;;;;;12.98;8.95;;;;;;;9.23;54.21;100761.97;4912005;28;124413;-73
2021/05/07 00:53:33;;;;;;;13.23;9.32;;;;;;;9.22;54.37;100754.97;4900695;28;123640;-74
2021/05/07 00:55:59;;;;;;;11.82;8.88;;;;;;;9.20;54.37;100756.81;4908798;28;119625;-74
2021/05/07 00:58:26;;;;;;;13.60;8.98;;;;;;;9.17;54.47;100760.44;4892941;28;118836;-73
2021/05/07 01:00:54;;;;;;;17.65;9.20;;;;;;;9.14;54.27;100753.50;4904452;28;123564;-74
2021/05/07 01:03:23;;;;;;;14.50;8.95;;;;;;;9.09;54.29;100758.09;4893871;28;123003;-73
2021/05/07 01:05:52;;;;;;;14.95;9.32;;;;;;;9.05;54.53;100764.44;4894040;28;120474;-74
2021/05/07 01:08:20;;;;;;;13.38;8.68;;;;;;;9.03;54.42;100766.28;4912840;28;120184;-74
2021/05/07 01:10:54;;;;;;;13.43;9.07;;;;;;;9.01;54.39;100773.41;4880230;28;124096;-74
2021/05/07 01:13:21;;;;;;;17.08;9.05;;;;;;;8.98;54.54;100762.09;4909563;28;124005;-74
2021/05/07 01:15:52;;;;;;;13.48;8.80;;;;;;;8.95;54.37;100768.38;4909739;28;118609;-74
2021/05/07 01:18:23;;;;;;;13.57;9.07;;;;;;;8.90;54.09;100765.06;4893769;28;118752;-74
2021/05/07 01:20:51;;;;;;;11.85;8.98;;;;;;;8.86;54.38;100768.75;4911929;28;124707;-75
2021/05/07 01:23:18;;;;;;;13.98;8.68;;;;;;;8.83;54.37;100774.13;4909131;28;124745;-74
2021/05/07 01:25:44;;;;;;;13.27;8.68;;;;;;;8.79;54.26;100772.53;4909412;28;119220;-74
2021/05/07 01:28:14;;;;;;;15.25;9.20;;;;;;;8.74;54.38;100775.38;4906557;28;119260;-75
2021/05/07 01:30:46;;;;;;;14.82;8.80;;;;;;;8.70;54.36;100774.63;4910699;28;123714;-75
2021/05/07 01:33:27;;;;;;;12.48;8.60;;;;;;;8.66;54.24;100770.34;4892511;28;123140;-75
2021/05/07 01:35:55;;;;;;;15.20;9.20;;;;;;;8.62;54.18;100781.94;4894512;28;118539;-75
2021/05/07 01:38:22;;;;;;;16.10;9.45;;;;;;;8.58;54.69;100789.13;4893619;28;118264;-74
2021/05/07 01:40:52;;;;;;;16.88;10.50;;;;;;;8.54;54.68;100799.88;4909790;28;124246;-75
2021/05/07 01:43:22;;;;;;;14.13;9.07;;;;;;;8.52;54.37;100801.72;4891340;28;122869;-75
2021/05/07 01:45:54;;;;;;;14.07;9.02;;;;;;;8.50;54.56;100808.81;4910144;28;119497;-74
2021/05/07 01:48:21;;;;;;;13.43;9.15;;;;;;;8.47;54.76;100811.56;4899066;28;118178;-74
2021/05/07 01:50:48;;;;;;;13.63;8.90;;;;;;;8.43;54.69;100807.31;4908809;28;124103;-74
2021/05/07 01:53:17;;;;;;;14.95;9.73;;;;;;;8.39;55.06;100807.38;4913922;28;124033;-74
2021/05/07 01:55:47;;;;;;;15.00;9.65;;;;;;;8.38;55.16;100805.69;4909321;28;119863;-74
2021/05/07 01:58:21;;;;;;;14.60;9.88;;;;;;;8.37;55.12;100809.22;4908530;28;119979;-74
2021/05/07 02:00:50;;;;;;;16.90;9.60;;;;;;;8.37;55.04;100814.50;4908018;28;124189;-74
2021/05/07 02:03:19;;;;;;;13.50;10.20;;;;;;;8.37;54.99;100813.66;4909622;28;124728;-74
2021/05/07 02:05:53;;;;;;;16.60;10.68;;;;;;;8.37;55.31;100809.22;4892665;28;119253;-73
2021/05/07 02:08:20;;;;;;;14.15;9.90;;;;;;;8.37;54.93;100814.50;4921653;23;119239;-69
2021/05/07 02:10:47;;;;;;;15.65;10.73;;;;;;;8.38;55.50;100820.63;4891017;28;123929;-69
2021/05/07 02:13:15;;;;;;;14.27;10.05;;;;;;;8.38;55.10;100816.25;4885747;28;124028;-70
2021/05/07 02:15:48;;;;;;;17.33;10.48;;;;;;;8.41;55.04;100814.41;4893412;28;118342;-70
2021/05/07 02:18:18;;;;;;;18.45;11.82;;;;;;;8.41;55.37;100822.31;4877707;28;118241;-69
2021/05/07 02:20:48;;;;;;;15.65;10.98;;;;;;;8.41;55.45;100824.97;4871170;28;123585;-70
2021/05/07 02:23:16;;;;;;;15.98;11.23;;;;;;;8.41;55.61;100822.31;4885976;28;123979;-69
2021/05/07 02:25:44;;;;;;;14.65;11.43;;;;;;;8.42;55.68;100826.69;4887819;28;118349;-69
2021/05/07 02:28:17;;;;;;;15.13;11.73;;;;;;;8.43;55.68;100821.38;4886317;28;119387;-70
2021/05/07 02:30:44;;;;;;;16.98;12.18;;;;;;;8.45;55.50;100821.31;4887539;28;124235;-70
2021/05/07 02:33:11;;;;;;;19.58;13.32;;;;;;;8.47;55.62;100819.47;4889159;28;124472;-69
2021/05/07 02:35:37;;;;;;;18.92;13.68;;;;;;;8.49;55.78;100817.66;4888155;28;117612;-70
2021/05/07 02:38:06;;;;;;;19.25;13.63;;;;;;;8.50;55.88;100819.38;4871375;28;118254;-69
2021/05/07 02:40:34;;;;;;;21.90;14.73;;;;;;;8.51;55.61;100814.06;4871823;28;124655;-70
2021/05/07 02:43:00;;;;;;;20.38;15.00;;;;;;;8.53;55.74;100813.97;4873148;28;124096;-69
2021/05/07 02:45:32;;;;;;;22.42;15.05;;;;;;;8.55;55.85;100817.41;4874698;28;119941;-70
2021/05/07 02:47:58;;;;;;;19.55;14.27;;;;;;;8.57;55.65;100820.88;4891184;28;119934;-70
2021/05/07 02:50:25;;;;;;;23.17;15.05;;;;;;;8.59;55.72;100824.31;4873294;28;123595;-70
2021/05/07 02:52:51;;;;;;;20.42;15.40;;;;;;;8.59;55.63;100829.59;4874782;28;123616;-69
2021/05/07 02:55:18;;;;;;;25.25;15.60;;;;;;;8.61;55.89;100816.31;4889356;28;119780;-69
2021/05/07 02:57:45;;;;;;;23.88;16.40;;;;;;;8.60;56.09;100818.09;4892449;28;119616;-69
2021/05/07 03:00:15;;;;;;;23.70;16.25;;;;;;;8.63;55.80;100820.66;4875766;28;123151;-69
2021/05/07 03:02:41;;;;;;;22.25;16.40;;;;;;;8.64;55.48;100827.63;4875375;28;124444;-69
2021/05/07 03:05:08;;;;;;;26.13;16.38;;;;;;;8.64;55.86;100827.63;4875382;28;119460;-70
2021/05/07 03:07:35;;;;;;;21.75;16.15;;;;;;;8.65;55.87;100828.50;4890610;28;118745;-69
2021/05/07 03:10:02;;;;;;;22.30;16.67;;;;;;;8.66;55.88;100825.78;4892125;28;123647;-70
2021/05/07 03:12:32;;;;;;;23.38;16.88;;;;;;;8.68;55.91;100834.53;4892265;28;124272;-69
2021/05/07 03:14:59;;;;;;;26.98;16.70;;;;;;;8.70;56.28;100832.72;4894526;28;118249;-70
2021/05/07 03:17:25;;;;;;;25.88;17.00;;;;;;;8.72;56.10;100835.25;4891636;28;118881;-69
2021/05/07 03:19:52;;;;;;;27.52;17.65;;;;;;;8.71;56.08;100829.13;4891682;28;124616;-70
2021/05/07 03:22:18;;;;;;;25.92;17.55;;;;;;;8.74;56.08;100828.19;4870463;28;123194;-70
2021/05/07 03:24:46;;;;;;;24.63;18.48;;;;;;;8.74;56.02;100829.03;4891195;28;119728;-69
2021/05/07 03:27:12;;;;;;;25.17;18.25;;;;;;;8.74;56.41;100834.31;4892414;28;118976;-69
2021/05/07 03:29:39;;;;;;;22.83;17.80;;;;;;;8.76;56.34;100832.47;4892838;28;123575;-69
2021/05/07 03:32:06;;;;;;;25.95;17.90;;;;;;;8.77;56.13;100834.16;4874202;28;124354;-69
2021/05/07 03:34:33;;;;;;;23.42;17.23;;;;;;;8.80;56.54;100832.34;4874448;28;119270;-69
2021/05/07 03:37:00;;;;;;;27.30;18.30;;;;;;;8.79;56.72;100836.75;4888918;28;120543;-69
2021/05/07 03:39:27;;;;;;;25.05;17.73;;;;;;;8.81;56.76;100828.78;4891267;28;124368;-70
2021/05/07 03:41:53;;;;;;;24.67;17.58;;;;;;;8.83;56.67;100835.72;4891711;28;124122;-69
2021/05/07 03:44:20;;;;;;;25.77;18.42;;;;;;;8.86;56.54;100832.97;4874202;28;119705;-69
2021/05/07 03:46:46;;;;;;;25.25;18.38;;;;;;;8.89;56.65;100842.53;4873385;28;118130;-69
2021/05/07 03:49:13;;;;;;;25.58;18.15;;;;;;;8.91;56.64;100856.56;4872988;28;124340;-69
2021/05/07 03:51:39;;;;;;;24.10;18.30;;;;;;;8.94;56.46;100864.38;4874206;28;123958;-69
2021/05/07 03:54:06;;;;;;;30.23;18.73;;;;;;;8.96;56.45;100866.03;4890690;28;119739;-70
2021/05/07 03:56:33;;;;;;;27.48;16.95;;;;;;;8.99;56.36;100886.19;4890592;28;119011;-70
2021/05/07 03:58:59;;;;;;;25.58;18.42;;;;;;;9.00;56.66;100895.84;4892288;28;123494;-70
2021/05/07 04:01:26;;;;;;;25.65;19.23;;;;;;;9.02;56.69;100901.06;4872918;28;122997;-70
2021/05/07 04:03:52;;;;;;;25.67;19.52;;;;;;;9.03;56.50;100903.66;4890939;28;118812;-70
2021/05/07 04:06:20;;;;;;;25.25;18.45;;;;;;;9.03;56.82;100893.09;4888799;28;119389;-70
2021/05/07 04:09:01;;;;;;;27.17;18.35;;;;;;;9.02;56.69;100875.50;4890656;28;98638;-70
2021/05/07 04:11:35;;;;;;;23.30;17.85;;;;;;;9.04;56.46;100878.97;4878314;28;123507;-70
2021/05/07 04:14:02;;;;;;;23.20;17.50;;;;;;;9.05;56.73;100885.97;4889191;28;118741;-70
2021/05/07 04:16:28;;;;;;;24.52;17.45;;;;;;;9.05;56.60;100901.81;4880373;28;118209;-70
2021/05/07 04:18:55;;;;;;;35.38;19.58;;;;;;;9.06;56.77;100903.56;4888494;28;123194;-69
2021/05/07 04:21:23;;;;;;;28.00;18.80;;;;;;;9.04;56.60;100910.69;4890689;28;123902;-72
2021/05/07 04:23:50;;;;;;;13.30;8.93;;;;;;;9.03;56.37;100914.22;4890587;28;120109;-69
2021/05/07 04:26:18;;;;;;;22.33;16.33;;;;;;;9.04;56.60;100921.25;4890608;28;120352;-70
2021/05/07 04:28:45;;;;;;;23.40;15.95;;;;;;;9.02;56.67;100917.75;4889786;28;123237;-70
2021/05/07 04:31:12;;;;;;;21.52;13.60;;;;;;;9.01;56.42;100929.28;4873288;28;123703;-70
2021/05/07 04:33:39;;;;;;;19.60;14.40;;;;;;;9.00;56.28;100924.03;4875421;28;117623;-70
2021/05/07 04:36:06;;;;;;;11.90;7.47;;;;;;;8.98;55.91;100936.44;4873164;28;118685;-69
2021/05/07 04:38:33;;;;;;;6.80;4.82;;;;;;;8.94;56.23;100931.25;4891708;28;123924;-70
2021/05/07 04:41:00;;;;;;;9.27;5.68;;;;;;;8.92;55.72;100948.94;4890262;28;124629;-70
2021/05/07 04:43:26;;;;;;;15.25;9.23;;;;;;;8.88;55.77;100962.34;4891123;28;119196;-70
2021/05/07 04:45:53;;;;;;;7.85;5.72;;;;;;;8.80;55.75;100978.47;4874748;28;119714;-70
2021/05/07 04:48:20;;;;;;;8.07;5.40;;;;;;;8.66;54.77;100984.22;4888931;28;124082;-70
2021/05/07 04:50:47;;;;;;;8.07;5.68;;;;;;;8.48;55.05;101001.56;4888192;28;124813;-69
2021/05/07 04:53:13;;;;;;;9.00;5.90;;;;;;;8.29;55.30;101006.56;4873503;28;119186;-69
2021/05/07 04:55:40;;;;;;;9.20;6.13;;;;;;;8.13;55.31;101005.31;4888355;28;119415;-69
2021/05/07 04:58:10;;;;;;;9.18;5.72;;;;;;;7.99;55.29;101004.00;4888141;28;125007;-68
2021/05/07 05:00:37;;;;;;;7.03;5.45;;;;;;;7.90;55.54;101014.81;4887900;28;124105;-68
2021/05/07 05:03:04;;;;;;;8.10;5.63;;;;;;;7.81;55.50;101015.09;4890589;28;119514;-68
2021/05/07 05:05:31;;;;;;;7.97;4.80;;;;;;;7.75;55.85;101015.31;4889451;28;119059;-68
2021/05/07 05:07:58;;;;;;;7.72;4.88;;;;;;;7.67;55.95;101007.63;4870493;28;124412;-68
2021/05/07 05:10:25;;;;;;;6.32;4.15;;;;;;;7.62;55.94;101008.69;4868926;28;125064;-68
2021/05/07 05:12:51;;;;;;;6.40;4.03;;;;;;;7.55;55.72;101019.41;4874449;28;119289;-68
2021/05/07 05:15:20;;;;;;;6.85;3.70;;;;;;;7.49;55.92;101019.56;4890198;28;118891;-68
2021/05/07 05:17:47;;;;;;;8.65;3.80;;;;;;;7.40;55.67;101025.09;4870544;28;123925;-68
2021/05/07 05:20:13;;;;;;;5.88;3.70;;;;;;;7.33;55.71;101023.59;4873662;28;123976;-68
2021/05/07 05:22:40;;;;;;;5.40;3.60;;;;;;;7.26;55.70;101027.28;4888625;28;118724;-68
2021/05/07 05:25:08;;;;;;;5.13;3.53;;;;;;;7.20;55.88;101034.47;4890171;28;118847;-68
2021/05/07 05:27:36;;;;;;;5.43;3.28;;;;;;;7.16;55.58;101038.09;4891520;28;123948;-68
2021/05/07 05:30:04;;;;;;;4.35;3.03;;;;;;;7.09;55.84;101041.78;4875814;28;123141;-68
2021/05/07 05:32:31;;;;;;;5.22;3.42;;;;;;;7.04;55.87;101038.41;4875516;28;118919;-68
2021/05/07 05:34:58;;;;;;;6.03;2.97;;;;;;;7.00;55.65;101042.91;4889838;28;118932;-68
2021/05/07 05:37:25;;;;;;;4.05;2.67;;;;;;;6.98;55.74;101049.13;4871797;28;124129;-68
2021/05/07 05:39:51;;;;;;;8.48;3.10;;;;;;;6.96;55.61;101045.66;4889814;28;123766;-68
2021/05/07 05:42:38;;;;;;;4.43;2.63;;;;;;;6.92;55.82;101050.16;4887767;28;118303;-67
2021/05/07 05:45:06;;;;;;;4.70;3.00;;;;;;;6.90;56.01;101059.00;4886914;28;119233;-69
2021/05/07 05:47:32;;;;;;;4.10;2.70;;;;;;;6.87;55.71;101064.34;4887071;28;124345;-66
2021/05/07 05:49:59;;;;;;;4.82;3.03;;;;;;;6.85;55.88;101067.00;4871895;28;122707;-67
2021/05/07 05:52:26;;;;;;;4.43;3.05;;;;;;;6.81;55.76;101068.84;4889884;28;119362;-67
2021/05/07 05:54:52;;;;;;;6.72;3.13;;;;;;;6.78;55.77;101074.22;4873362;28;119543;-67
2021/05/07 05:57:20;;;;;;;5.13;2.97;;;;;;;6.78;56.14;101084.75;4889082;28;124374;-67
2021/05/07 05:59:50;;;;;;;3.88;2.75;;;;;;;6.76;55.95;101081.28;4856252;28;122745;-66
2021/05/07 06:02:17;;;;;;;4.15;2.78;;;;;;;6.76;56.21;101080.41;4887232;28;120642;-67
2021/05/07 06:04:45;;;;;;;4.05;2.97;;;;;;;6.75;56.31;101074.28;4873947;28;120563;-67
2021/05/07 06:07:12;;;;;;;5.32;2.75;;;;;;;6.77;56.49;101072.47;4887384;28;124666;-67
2021/05/07 06:09:39;;;;;;;4.90;3.08;;;;;;;6.80;56.50;101082.94;4869984;28;123920;-67
2021/05/07 06:12:09;;;;;;;5.03;3.00;;;;;;;6.81;56.37;101089.91;4890570;28;119319;-68
2021/05/07 06:14:36;;;;;;;5.45;3.00;;;;;;;6.83;56.48;101093.34;4873597;28;118340;-67
2021/05/07 06:17:08;;;;;;;4.85;3.17;;;;;;;6.85;56.32;101100.38;4887765;28;125293;-67
2021/05/07 06:19:36;;;;;;;4.70;2.90;;;;;;;6.87;56.67;101095.94;4895692;28;124136;-67
2021/05/07 06:22:03;;;;;;;4.65;3.30;;;;;;;6.89;56.51;101108.13;4894045;28;119588;-67
2021/05/07 06:24:30;;;;;;;6.35;3.47;;;;;;;6.93;56.77;101120.34;4878788;28;119412;-67
2021/05/07 06:26:56;;;;;;;6.65;3.42;;;;;;;6.96;56.38;101129.94;4893950;28;124128;-67
2021/05/07 06:29:23;;;;;;;5.60;3.30;;;;;;;6.99;56.65;101130.72;4877621;28;122306;-67
2021/05/07 06:31:50;;;;;;;4.30;3.55;;;;;;;7.05;56.72;101129.69;4897021;28;118452;-67
2021/05/07 06:34:16;;;;;;;8.90;5.60;;;;;;;7.13;57.09;101132.97;4878576;28;119620;-67
2021/05/07 06:36:43;;;;;;;9.38;5.93;;;;;;;7.22;56.91;101140.66;4896075;28;123969;-69
2021/05/07 06:39:09;;;;;;;7.78;5.55;;;;;;;7.34;56.83;101138.59;4877652;28;122679;-68
2021/05/07 06:41:36;;;;;;;6.07;3.70;;;;;;;7.44;56.93;101148.00;4896691;28;119698;-67
2021/05/07 06:44:04;;;;;;;5.50;4.60;;;;;;;7.58;57.40;101150.25;4894966;28;118903;-68
2021/05/07 06:46:32;;;;;;;5.50;3.42;;;;;;;7.72;57.53;101155.13;4895525;28;124078;-68
2021/05/07 06:48:58;;;;;;;6.47;4.18;;;;;;;7.84;57.36;101149.50;4878268;28;122648;-68
2021/05/07 06:51:27;;;;;;;5.65;4.10;;;;;;;7.97;57.53;101158.78;4878503;28;119881;-68
2021/05/07 06:53:54;;;;;;;8.57;5.22;;;;;;;8.14;57.65;101165.34;4878503;28;119112;-68
2021/05/07 06:56:21;;;;;;;8.10;6.20;;;;;;;8.30;58.14;101163.97;4877109;28;123443;-68
2021/05/07 06:58:48;;;;;;;8.60;5.97;;;;;;;8.50;57.98;101162.53;4894715;28;125377;-69
2021/05/07 07:01:15;;;;;;;6.50;4.38;;;;;;;8.68;57.62;101161.06;4896330;28;120043;-70
2021/05/07 07:03:43;;;;;;;5.10;3.67;;;;;;;8.84;57.72;101166.72;4877547;28;118600;-69
2021/05/07 07:06:09;;;;;;;5.13;4.07;;;;;;;9.00;57.79;101173.22;4896208;28;123763;-69
2021/05/07 07:08:36;;;;;;;6.50;4.13;;;;;;;9.16;57.52;101185.00;4877066;28;124057;-69
2021/05/07 07:11:03;;;;;;;5.97;4.32;;;;;;;9.32;57.88;101189.78;4879102;28;119217;-68
2021/05/07 07:13:29;;;;;;;5.32;3.53;;;;;;;9.44;57.46;101197.28;4895522;28;118702;-69
2021/05/07 07:15:56;;;;;;;5.20;3.83;;;;;;;9.55;57.33;101195.13;4892620;28;124135;-69
2021/05/07 07:18:23;;;;;;;6.10;3.90;;;;;;;9.69;57.09;101199.06;4860104;28;123051;-68
2021/05/07 07:20:50;;;;;;;5.57;4.07;;;;;;;9.84;57.32;101198.50;4893908;28;119781;-69
2021/05/07 07:23:17;;;;;;;4.85;3.60;;;;;;;9.97;57.06;101203.38;4878398;28;117245;-68
2021/05/07 07:25:43;;;;;;;5.97;3.53;;;;;;;10.08;56.86;101203.84;4894361;28;123786;-69
2021/05/07 07:28:11;;;;;;;5.22;4.20;;;;;;;10.19;56.86;101204.31;4873288;28;123629;-69
2021/05/07 07:30:38;;;;;;;5.07;3.70;;;;;;;10.33;56.86;101209.94;4890044;28;119643;-69
2021/05/07 07:33:05;;;;;;;4.57;3.60;;;;;;;10.47;56.27;101213.84;4888519;28;118304;-69
2021/05/07 07:35:31;;;;;;;6.50;4.32;;;;;;;10.56;56.73;101213.50;4874631;28;124007;-68
2021/05/07 07:37:58;;;;;;;6.13;4.80;;;;;;;10.68;56.38;101217.44;4876269;28;122833;-68
2021/05/07 07:40:24;;;;;;;7.28;4.75;;;;;;;10.79;56.04;101214.38;4891971;28;121787;-68
2021/05/07 07:42:51;;;;;;;6.05;4.72;;;;;;;10.88;55.94;101224.59;4893257;28;119893;-68
2021/05/07 07:45:18;;;;;;;5.72;4.07;;;;;;;10.96;55.93;101238.41;4899524;28;124261;-68
2021/05/07 07:47:44;;;;;;;4.55;3.22;;;;;;;11.03;55.63;101239.88;4880697;28;123769;-68
2021/05/07 07:50:12;;;;;;;3.92;3.22;;;;;;;11.12;55.43;101237.81;4880857;28;118897;-68
2021/05/07 07:52:39;;;;;;;4.07;3.03;;;;;;;11.18;55.47;101245.50;4910942;28;118833;-68
2021/05/07 07:55:08;;;;;;;4.43;3.35;;;;;;;11.25;55.27;101250.47;4895355;28;124532;-68
2021/05/07 07:57:34;;;;;;;3.78;3.17;;;;;;;11.32;55.12;101251.09;4877735;28;122651;-68
2021/05/07 08:00:03;;;;;;;4.10;3.50;;;;;;;11.41;55.68;101258.66;4881922;28;119128;-69
2021/05/07 08:02:37;;;;;;;;;;;;;;;11.52;55.68;101252.03;4891032;28;119615;-69
2021/05/07 08:05:05;;;;;;;3.85;2.53;;;;;;;11.62;55.35;101263.97;4859109;28;123405;-69
2021/05/07 08:07:32;;;;;;;4.53;3.53;;;;;;;11.69;54.97;101265.44;4868241;28;122631;-69
2021/05/07 08:09:58;;;;;;;5.13;3.55;;;;;;;11.75;55.03;101278.44;4893990;28;119467;-69
2021/05/07 08:12:25;;;;;;;5.72;3.58;;;;;;;11.82;55.24;101277.25;4892735;28;119415;-68
2021/05/07 08:14:52;;;;;;;3.97;3.25;;;;;;;11.94;55.11;101280.34;4873899;28;123449;-68
2021/05/07 08:17:18;;;;;;;4.93;3.60;;;;;;;12.03;54.96;101287.91;4869402;28;122812;-68
2021/05/07 08:19:46;;;;;;;5.30;4.10;;;;;;;12.11;54.89;101283.13;4889441;28;119049;-68
2021/05/07 08:22:13;;;;;;;4.63;3.92;;;;;;;12.17;54.96;101282.84;4893643;28;118657;-68
2021/05/07 08:24:42;;;;;;;4.75;3.90;;;;;;;12.26;54.55;101287.75;4935390;23;124063;-76
2021/05/07 08:27:09;;;;;;;5.28;4.57;;;;;;;12.32;54.13;101293.69;4936787;28;124258;-75
2021/05/07 08:29:37;;;;;;;5.63;4.68;;;;;;;12.34;53.92;101299.78;4924134;28;120458;-76
2021/05/07 08:32:04;;;;;;;5.47;4.25;;;;;;;12.40;54.06;101300.41;4924715;28;120047;-76
2021/05/07 08:34:31;;;;;;;5.57;4.53;;;;;;;12.48;54.07;101305.34;4925969;28;123830;-75
2021/05/07 08:36:58;;;;;;;7.82;5.18;;;;;;;12.56;53.81;101316.50;4914930;28;124868;-75
2021/05/07 08:39:25;;;;;;;6.35;4.75;;;;;;;12.61;53.90;101309.19;4901228;28;118368;-76
2021/05/07 08:41:52;;;;;;;6.38;4.93;;;;;;;12.69;53.83;101322.09;4915935;28;118122;-76
2021/05/07 08:44:19;;;;;;;5.55;4.32;;;;;;;12.73;53.51;101328.16;4911180;28;123975;-75
2021/05/07 08:46:46;;;;;;;7.10;5.03;;;;;;;12.78;53.43;101320.84;4932063;28;124435;-75
2021/05/07 08:49:16;;;;;;;6.50;4.72;;;;;;;12.82;53.59;101333.03;4930327;28;119308;-75
2021/05/07 08:51:43;;;;;;;6.35;4.80;;;;;;;12.86;53.26;101329.28;4916255;28;118157;-75
2021/05/07 08:54:11;;;;;;;6.40;4.57;;;;;;;12.85;52.86;101330.25;4920537;28;123871;-75
2021/05/07 08:56:38;;;;;;;6.93;4.85;;;;;;;12.84;52.83;101347.13;4915880;28;122941;-75
2021/05/07 08:59:05;;;;;;;6.88;4.65;;;;;;;12.82;52.60;101344.53;4930447;28;119578;-75
2021/05/07 09:01:38;;;;;;;8.23;4.85;;;;;;;12.81;52.59;101347.28;4926358;28;118915;-74
2021/05/07 09:04:14;;;;;;;6.35;4.88;;;;;;;12.84;52.55;101352.44;4927003;28;124131;-74
2021/05/07 09:06:53;;;;;;;6.82;5.10;;;;;;;12.85;52.46;101359.50;4919601;28;123719;-74
2021/05/07 09:09:26;;;;;;;7.25;5.25;;;;;;;12.86;52.18;101366.50;4920872;28;119586;-75
2021/05/07 09:12:00;;;;;;;7.22;5.30;;;;;;;12.87;52.13;101368.25;4927025;28;119060;-74
2021/05/07 09:14:30;;;;;;;6.55;5.40;;;;;;;12.92;52.44;101366.25;4915355;28;123064;-74
2021/05/07 09:17:26;;;;;;;7.10;5.47;;;;;;;13.03;52.86;101376.38;4916949;28;124080;-74
2021/05/07 09:20:12;;;;;;;6.90;4.40;;;;;;;13.12;52.14;101383.06;4925419;28;119978;-74
2021/05/07 09:22:42;;;;;;;7.28;4.85;;;;;;;13.20;52.03;101380.88;4924093;28;120369;-73
2021/05/07 09:25:16;;;;;;;6.63;3.92;;;;;;;13.29;52.02;101385.78;4931403;28;124272;-74
2021/05/07 09:27:45;;;;;;;5.70;3.60;;;;;;;13.44;51.43;101385.06;4933436;28;124237;-74
2021/05/07 09:30:18;;;;;;;4.40;3.40;;;;;;;13.54;51.35;101397.94;4924195;28;119272;-74
2021/05/07 09:32:49;;;;;;;6.50;4.15;;;;;;;13.62;50.99;101398.44;4926407;28;118811;-74
2021/05/07 09:35:16;;;;;;;8.40;4.18;;;;;;;13.72;50.64;101394.38;4929455;28;124354;-75
2021/05/07 09:37:45;;;;;;;6.57;3.40;;;;;;;13.78;49.73;101394.06;4926093;28;124056;-74
2021/05/07 09:40:18;;;;;;;5.60;3.80;;;;;;;13.88;49.90;101398.94;4896892;28;118381;-74
2021/05/07 09:42:46;;;;;;;7.50;3.83;;;;;;;13.97;49.44;101398.47;4930436;28;118531;-74
2021/05/07 09:45:23;;;;;;;7.80;3.90;;;;;;;14.05;49.35;101398.09;4922858;28;124409;-74
2021/05/07 09:47:54;;;;;;;6.18;3.70;;;;;;;14.12;48.66;101402.16;4907347;28;123480;-73
2021/05/07 09:50:40;;;;;;;4.63;3.70;;;;;;;14.17;48.98;101411.66;4901375;28;118321;-75
2021/05/07 09:53:12;;;;;;;6.28;3.60;;;;;;;14.23;48.56;101409.63;4911882;28;119566;-74
2021/05/07 09:55:41;;;;;;;5.07;3.75;;;;;;;14.29;48.58;101414.63;4916030;28;124118;-75
2021/05/07 09:58:09;;;;;;;6.05;3.85;;;;;;;14.35;48.36;101424.94;4917944;28;124238;-74
2021/05/07 10:00:36;;;;;;;6.10;3.63;;;;;;;14.37;48.00;101423.97;4919923;28;119349;-75
2021/05/07 10:03:04;;;;;;;6.88;3.67;;;;;;;14.41;48.20;101424.66;4919939;28;119346;-74
2021/05/07 10:05:35;;;;;;;5.03;3.80;;;;;;;14.42;47.60;101437.03;4918925;28;124442;-74
2021/05/07 10:08:02;;;;;;;6.05;3.58;;;;;;;14.41;47.13;101443.31;4920050;28;122692;-75
2021/05/07 10:10:37;;;;;;;5.15;3.70;;;;;;;14.38;47.22;101440.78;4917779;28;120984;-75
2021/05/07 10:13:07;;;;;;;5.30;4.03;;;;;;;14.35;47.23;101443.59;4918818;28;119863;-74
2021/05/07 10:15:37;;;;;;;5.80;3.72;;;;;;;14.35;47.35;101446.28;4918944;28;124411;-76
2021/05/07 10:18:10;;;;;;;7.30;4.00;;;;;;;14.39;47.82;101445.16;4917419;28;123358;-75
2021/05/07 10:20:40;;;;;;;6.47;3.95;;;;;;;14.42;47.84;101453.03;4925541;28;119294;-76
2021/05/07 10:23:19;;;;;;;5.55;4.20;;;;;;;14.47;47.87;101451.00;4910648;28;119309;-75
2021/05/07 10:25:53;;;;;;;5.55;4.30;;;;;;;14.57;48.09;101444.25;4917136;28;124061;-75
2021/05/07 10:28:21;;;;;;;7.80;3.33;;;;;;;14.68;47.70;101442.84;4901085;28;123896;-75
2021/05/07 10:30:48;;;;;;;4.45;3.20;;;;;;;14.82;47.23;101445.63;4915016;28;117551;-76
2021/05/07 10:33:20;;;;;;;5.25;3.45;;;;;;;14.97;47.05;101450.16;4903760;28;119112;-77
2021/05/07 10:35:54;;;;;;;6.53;3.85;;;;;;;15.13;46.71;101438.66;4918264;28;123870;-76
2021/05/07 10:38:23;;;;;;;6.03;3.70;;;;;;;15.24;46.63;101449.59;4911636;28;124231;-76
2021/05/07 10:41:10;;;;;;;6.85;3.60;;;;;;;15.35;46.68;101449.88;4924957;28;119195;-76
2021/05/07 10:43:39;;;;;;;6.68;3.78;;;;;;;15.46;46.34;101451.06;4917205;28;118137;-75
2021/05/07 10:46:19;;;;;;;3.97;3.25;;;;;;;15.54;45.66;101448.84;4910718;28;124343;-75
2021/05/07 10:48:51;;;;;;;4.80;3.13;;;;;;;15.62;45.33;101449.28;4918992;28;123947;-76
2021/05/07 10:51:19;;;;;;;4.90;3.60;;;;;;;15.70;45.33;101449.69;4928461;28;120225;-76
2021/05/07 10:53:48;;;;;;;7.47;3.78;;;;;;;15.71;44.32;101456.75;4924624;28;118967;-75
2021/05/07 10:56:18;;;;;;;6.47;3.65;;;;;;;15.66;43.88;101464.16;4907813;28;123602;-75
2021/05/07 10:58:46;;;;;;;5.88;3.53;;;;;;;15.56;43.73;101474.50;4898056;28;125116;-74
2021/05/07 11:01:26;;;;;;;6.80;3.88;;;;;;;15.43;43.61;101485.97;4925036;28;120343;-74
2021/05/07 11:04:05;;;;;;;6.63;4.30;;;;;;;15.26;44.08;101487.75;4918556;28;120049;-74
2021/05/07 11:06:45;;;;;;;5.30;3.60;;;;;;;15.09;43.45;101495.81;4907454;28;123397;-75
2021/05/07 11:09:16;;;;;;;5.38;4.00;;;;;;;14.91;43.26;101498.47;4923797;28;124643;-75
2021/05/07 11:11:44;;;;;;;6.95;3.45;;;;;;;14.74;43.64;101498.50;4905358;28;118255;-74
2021/05/07 11:14:16;;;;;;;5.05;4.10;;;;;;;14.60;43.87;101505.41;4913518;28;118701;-73
2021/05/07 11:16:45;;;;;;;4.78;4.13;;;;;;;14.51;44.23;101505.84;4905148;28;123134;-74
2021/05/07 11:19:35;;;;;;;6.05;4.15;;;;;;;14.40;44.47;101502.88;4926636;28;124462;-74
2021/05/07 11:22:08;;;;;;;5.32;4.20;;;;;;;14.37;44.33;101503.00;4920074;28;119429;-74
2021/05/07 11:24:37;;;;;;;5.55;4.13;;;;;;;14.34;44.77;101513.84;4924384;28;119341;-74